Cottonwood Station, Arizona
Current Conditions -  °F | °C
As of 1:53 PM on Thursday 27 Nov 2014 (Local Time) from KGUP Reporting Station
Clear Clear  
Wind Chill: 62°   Ceiling: Unl
Heat Index: 62°   Visibility: 10mi
Dew Point: 17°   Wind: 3mph
Humidity: 18%   Direction: 340°NNW
Pressure: 30.38"   Gusts: NA
Location:  36.1012°N, 109.584°W
Report Text: KGUP 272053Z AUTO 34003KT 10SM CLR 17/M08 A3038 RMK AO2 SLP257 T01671083 56031
Loading
Personal Weather Stations






























Interactive Weather Map New forecast layout! Learn more

10-Day Weather Forecast

Advertisements
Track Severe Weather on mobile